Time;durP1;ratioP1;P1;durP2;ratioP2;P2;SDS_P1;SDS_P2;PMS_P1;PMS_P2;Temp;Humidity;BMP_temperature;BMP_pressure;BME280_temperature;BME280_humidity;BME280_pressure;Samples;Min_cycle;Max_cycle;Signal;HPM_P1;HPM_P2
2022/04/28 00:00:05;;;;;;;17.03;12.60;;;;;;;;;;754518;185;920193;-65
2022/04/28 00:02:33;;;;;;;16.87;11.13;;;;;;;;;;751860;184;919359;-66
2022/04/28 00:04:57;;;;;;;15.50;10.40;;;;;;;;;;756461;184;919183;-66
2022/04/28 00:07:23;;;;;;;14.57;11.37;;;;;;;;;;748623;184;918831;-66
2022/04/28 00:09:49;;;;;;;20.17;14.20;;;;;;;;;;760922;184;919072;-64
2022/04/28 00:12:15;;;;;;;19.03;13.00;;;;;;;;;;755937;184;918759;-66
2022/04/28 00:14:42;;;;;;;20.97;12.93;;;;;;;;;;755974;183;918859;-66
2022/04/28 00:17:06;;;;;;;14.83;11.43;;;;;;;;;;765827;183;918592;-66
2022/04/28 00:19:32;;;;;;;15.07;11.98;;;;;;;;;;757870;184;991445;-67
2022/04/28 00:21:58;;;;;;;19.23;11.80;;;;;;;;;;751864;184;918860;-67
2022/04/28 00:24:24;;;;;;;19.53;13.63;;;;;;;;;;761192;184;917795;-66
2022/04/28 00:26:50;;;;;;;18.50;12.20;;;;;;;;;;758139;184;1019828;-66
2022/04/28 00:29:16;;;;;;;24.77;13.57;;;;;;;;;;758560;184;919233;-66
2022/04/28 00:31:41;;;;;;;19.93;12.10;;;;;;;;;;758388;184;918912;-67
2022/04/28 00:34:07;;;;;;;18.50;14.03;;;;;;;;;;757518;184;918665;-66
2022/04/28 00:36:33;;;;;;;15.53;10.87;;;;;;;;;;758142;183;919209;-66
2022/04/28 00:38:59;;;;;;;17.77;11.40;;;;;;;;;;751837;185;918132;-65
2022/04/28 00:41:25;;;;;;;18.70;11.80;;;;;;;;;;756178;186;911168;-66
2022/04/28 00:43:51;;;;;;;17.40;11.60;;;;;;;;;;755586;184;912508;-65
2022/04/28 00:46:17;;;;;;;18.87;11.50;;;;;;;;;;759010;184;1019419;-65
2022/04/28 00:51:15;;;;;;;17.27;12.47;;;;;;;;;;765273;184;919164;-66
2022/04/28 00:53:41;;;;;;;19.03;13.97;;;;;;;;;;754847;184;920675;-66
2022/04/28 00:56:08;;;;;;;17.70;12.50;;;;;;;;;;751130;184;942423;-65
2022/04/28 00:58:33;;;;;;;21.05;11.50;;;;;;;;;;759283;185;919210;-66
2022/04/28 01:00:59;;;;;;;14.97;10.70;;;;;;;;;;726792;189;920416;-65
2022/04/28 01:03:30;;;;;;;18.60;11.80;;;;;;;;;;752305;184;918817;-65
2022/04/28 01:05:51;;;;;;;16.77;11.27;;;;;;;;;;762371;184;918225;-65
2022/04/28 01:08:17;;;;;;;15.10;11.03;;;;;;;;;;751941;185;917067;-65
2022/04/28 01:10:42;;;;;;;17.13;11.70;;;;;;;;;;752662;185;911312;-66
2022/04/28 01:13:08;;;;;;;16.60;11.67;;;;;;;;;;752673;184;917171;-66
2022/04/28 01:15:40;;;;;;;14.93;10.83;;;;;;;;;;761043;184;912079;-66
2022/04/28 01:18:06;;;;;;;17.87;13.67;;;;;;;;;;747083;183;914992;-67
2022/04/28 01:20:32;;;;;;;15.87;12.57;;;;;;;;;;751165;181;918983;-67
2022/04/28 01:22:57;;;;;;;18.77;11.10;;;;;;;;;;756911;185;918765;-66
2022/04/28 01:25:23;;;;;;;19.93;13.33;;;;;;;;;;759561;182;918828;-66
2022/04/28 01:27:49;;;;;;;17.35;13.77;;;;;;;;;;746103;184;921450;-67
2022/04/28 01:30:16;;;;;;;14.82;11.12;;;;;;;;;;754837;184;1021151;-65
2022/04/28 01:32:42;;;;;;;19.60;12.70;;;;;;;;;;756581;183;919714;-66
2022/04/28 01:35:08;;;;;;;16.53;11.70;;;;;;;;;;760866;183;920075;-66
2022/04/28 01:37:34;;;;;;;16.57;10.83;;;;;;;;;;761462;183;918630;-65
2022/04/28 01:40:00;;;;;;;19.15;12.85;;;;;;;;;;763731;183;918695;-65
2022/04/28 01:42:26;;;;;;;15.53;11.87;;;;;;;;;;750271;184;918981;-65
2022/04/28 01:44:51;;;;;;;20.53;12.10;;;;;;;;;;760819;184;919403;-66
2022/04/28 01:47:17;;;;;;;17.43;11.70;;;;;;;;;;757322;184;920075;-65
2022/04/28 01:49:43;;;;;;;17.30;12.30;;;;;;;;;;747425;184;951316;-66
2022/04/28 01:57:12;;;;;;;17.87;11.87;;;;;;;;;;756027;184;916952;-66
2022/04/28 01:59:38;;;;;;;17.87;11.10;;;;;;;;;;758135;183;919482;-66
2022/04/28 02:02:04;;;;;;;15.05;11.12;;;;;;;;;;754199;183;919108;-66
2022/04/28 02:04:30;;;;;;;16.80;11.70;;;;;;;;;;756507;185;917821;-64
2022/04/28 02:06:55;;;;;;;20.53;11.60;;;;;;;;;;749729;185;919288;-66
2022/04/28 02:09:21;;;;;;;24.43;11.80;;;;;;;;;;756740;183;948308;-66
2022/04/28 02:11:47;;;;;;;17.23;11.90;;;;;;;;;;762288;183;918152;-65
2022/04/28 02:14:13;;;;;;;19.25;12.00;;;;;;;;;;764684;183;938560;-66
2022/04/28 02:16:39;;;;;;;16.40;12.03;;;;;;;;;;757741;185;919130;-66
2022/04/28 02:19:05;;;;;;;15.30;11.00;;;;;;;;;;748741;185;919228;-66
2022/04/28 02:21:31;;;;;;;18.87;12.82;;;;;;;;;;754440;185;918535;-65
2022/04/28 02:23:56;;;;;;;20.73;12.77;;;;;;;;;;750111;185;918410;-65
2022/04/28 02:26:22;;;;;;;21.60;11.73;;;;;;;;;;749229;181;919231;-66
2022/04/28 02:28:48;;;;;;;14.75;11.88;;;;;;;;;;763942;183;918388;-66
2022/04/28 02:31:14;;;;;;;14.73;11.70;;;;;;;;;;750817;184;918692;-65
2022/04/28 02:33:40;;;;;;;14.85;12.60;;;;;;;;;;751242;185;918697;-65
2022/04/28 02:36:06;;;;;;;20.87;13.10;;;;;;;;;;761887;182;918366;-66
2022/04/28 02:38:32;;;;;;;15.40;11.73;;;;;;;;;;758988;183;918342;-65
2022/04/28 02:40:57;;;;;;;15.10;11.20;;;;;;;;;;754379;183;877963;-66
2022/04/28 02:43:24;;;;;;;18.47;12.10;;;;;;;;;;760942;183;918221;-65
2022/04/28 02:45:49;;;;;;;15.47;10.60;;;;;;;;;;757983;184;918464;-65
2022/04/28 02:48:15;;;;;;;14.63;11.30;;;;;;;;;;757152;184;919196;-66
2022/04/28 02:50:41;;;;;;;16.50;11.13;;;;;;;;;;751867;184;918889;-64
2022/04/28 02:53:07;;;;;;;18.23;11.27;;;;;;;;;;755812;184;919305;-66
2022/04/28 02:55:33;;;;;;;14.57;11.20;;;;;;;;;;749655;184;920665;-64
2022/04/28 02:57:58;;;;;;;14.90;10.52;;;;;;;;;;748699;184;1016419;-65
2022/04/28 03:00:24;;;;;;;13.60;10.63;;;;;;;;;;754152;184;918857;-66
2022/04/28 03:02:50;;;;;;;14.67;11.23;;;;;;;;;;758464;184;918903;-65
2022/04/28 03:05:16;;;;;;;13.62;9.57;;;;;;;;;;751639;184;918277;-65
2022/04/28 03:12:47;;;;;;;15.20;10.85;;;;;;;;;;763313;184;925408;-65
2022/04/28 03:15:13;;;;;;;12.47;9.60;;;;;;;;;;753830;184;919983;-65
2022/04/28 03:17:38;;;;;;;17.33;10.57;;;;;;;;;;754686;184;941827;-65
2022/04/28 03:20:05;;;;;;;14.77;11.27;;;;;;;;;;759683;184;919771;-65
2022/04/28 03:22:31;;;;;;;16.93;10.90;;;;;;;;;;755445;183;919328;-64
2022/04/28 03:24:57;;;;;;;19.90;12.30;;;;;;;;;;759005;184;919150;-65
2022/04/28 03:27:22;;;;;;;17.00;11.30;;;;;;;;;;763604;184;919019;-65
2022/04/28 03:29:48;;;;;;;17.80;12.03;;;;;;;;;;753560;184;919595;-65
2022/04/28 03:32:14;;;;;;;18.73;11.60;;;;;;;;;;754685;183;918619;-65
2022/04/28 03:34:40;;;;;;;17.40;12.40;;;;;;;;;;755691;184;919616;-64
2022/04/28 03:37:06;;;;;;;58.70;29.47;;;;;;;;;;755925;187;629896;-65
2022/04/28 03:39:32;;;;;;;20.70;14.20;;;;;;;;;;761217;183;636754;-66
2022/04/28 03:41:58;;;;;;;21.73;14.03;;;;;;;;;;765366;183;626506;-64
2022/04/28 03:44:23;;;;;;;23.73;14.13;;;;;;;;;;764226;184;919070;-66
2022/04/28 03:46:49;;;;;;;22.20;12.93;;;;;;;;;;758138;183;918356;-65
2022/04/28 03:49:15;;;;;;;23.90;16.12;;;;;;;;;;758737;183;919589;-66
2022/04/28 03:51:41;;;;;;;22.20;14.13;;;;;;;;;;762321;182;919427;-65
2022/04/28 03:54:07;;;;;;;23.17;12.83;;;;;;;;;;754543;183;1226074;-65
2022/04/28 03:56:33;;;;;;;24.37;13.37;;;;;;;;;;756817;184;917610;-66
2022/04/28 03:59:00;;;;;;;20.30;13.70;;;;;;;;;;759917;184;918555;-66
2022/04/28 04:01:26;;;;;;;23.83;12.80;;;;;;;;;;766154;183;919249;-66
2022/04/28 04:03:51;;;;;;;22.07;13.93;;;;;;;;;;754968;184;919648;-65
2022/04/28 04:06:17;;;;;;;23.27;16.20;;;;;;;;;;754409;184;918717;-66
2022/04/28 04:08:43;;;;;;;24.43;14.90;;;;;;;;;;762309;184;919037;-66
2022/04/28 04:11:09;;;;;;;24.93;15.60;;;;;;;;;;755270;184;917244;-66
2022/04/28 04:13:35;;;;;;;27.90;14.90;;;;;;;;;;760121;184;644208;-66
2022/04/28 04:16:01;;;;;;;23.60;15.07;;;;;;;;;;763633;184;634886;-66
2022/04/28 04:18:26;;;;;;;22.17;15.30;;;;;;;;;;759763;184;628271;-66
2022/04/28 04:20:52;;;;;;;24.93;15.70;;;;;;;;;;761358;183;918351;-67
2022/04/28 04:23:18;;;;;;;26.57;17.70;;;;;;;;;;760579;184;918685;-66
2022/04/28 04:25:44;;;;;;;21.15;15.52;;;;;;;;;;752652;183;919203;-66
2022/04/28 04:28:10;;;;;;;30.90;18.40;;;;;;;;;;755152;183;918922;-66
2022/04/28 04:33:07;;;;;;;29.93;17.53;;;;;;;;;;761909;183;914860;-66
2022/04/28 04:35:33;;;;;;;23.37;15.77;;;;;;;;;;749515;184;917641;-66
2022/04/28 04:37:59;;;;;;;25.50;17.23;;;;;;;;;;747474;184;914491;-66
2022/04/28 04:40:25;;;;;;;29.73;19.90;;;;;;;;;;756106;185;814513;-67
2022/04/28 04:42:50;;;;;;;38.07;22.20;;;;;;;;;;749444;184;919396;-65
2022/04/28 04:45:16;;;;;;;34.47;23.10;;;;;;;;;;742204;185;920280;-66
2022/04/28 04:47:42;;;;;;;48.45;29.55;;;;;;;;;;732092;188;919125;-66
2022/04/28 04:50:08;;;;;;;42.70;28.80;;;;;;;;;;759713;184;897341;-67
2022/04/28 04:52:34;;;;;;;46.70;29.70;;;;;;;;;;748068;184;918330;-66
2022/04/28 04:55:00;;;;;;;53.53;35.85;;;;;;;;;;748486;185;1021343;-66
2022/04/28 04:57:26;;;;;;;91.80;56.10;;;;;;;;;;761480;184;920744;-65
2022/04/28 04:59:51;;;;;;;52.77;34.50;;;;;;;;;;734750;190;920195;-66
2022/04/28 05:02:17;;;;;;;80.47;51.27;;;;;;;;;;762227;183;919399;-66
2022/04/28 05:04:43;;;;;;;62.90;42.23;;;;;;;;;;753538;183;918860;-66
2022/04/28 05:07:09;;;;;;;63.55;38.55;;;;;;;;;;742563;187;1019718;-65
2022/04/28 05:09:35;;;;;;;55.72;35.28;;;;;;;;;;731466;190;918275;-65
2022/04/28 05:12:02;;;;;;;53.33;32.75;;;;;;;;;;765695;183;920399;-63
2022/04/28 05:14:27;;;;;;;54.40;32.53;;;;;;;;;;750694;188;916809;-66
2022/04/28 05:16:57;;;;;;;47.27;32.10;;;;;;;;;;744775;187;919377;-65
2022/04/28 05:19:19;;;;;;;49.83;30.47;;;;;;;;;;762960;184;917270;-65
2022/04/28 05:21:45;;;;;;;42.70;28.80;;;;;;;;;;763059;184;918038;-64
2022/04/28 05:24:11;;;;;;;42.33;32.53;;;;;;;;;;757304;183;920273;-63
2022/04/28 05:26:37;;;;;;;47.00;28.63;;;;;;;;;;766638;182;912913;-65
2022/04/28 05:29:02;;;;;;;47.33;34.27;;;;;;;;;;772240;183;912644;-63
2022/04/28 05:31:28;;;;;;;51.30;26.15;;;;;;;;;;757258;183;916006;-64
2022/04/28 05:33:54;;;;;;;55.30;34.80;;;;;;;;;;753704;184;915723;-64
2022/04/28 05:36:21;;;;;;;44.27;26.73;;;;;;;;;;760608;184;630555;-64
2022/04/28 05:38:46;;;;;;;54.50;32.03;;;;;;;;;;760584;184;639618;-65
2022/04/28 05:41:12;;;;;;;42.37;30.60;;;;;;;;;;740403;187;919169;-64
2022/04/28 05:46:25;;;;;;;49.60;27.73;;;;;;;;;;742378;185;919431;-64
2022/04/28 05:48:50;;;;;;;41.80;28.50;;;;;;;;;;755592;185;903161;-63
2022/04/28 05:51:18;;;;;;;42.37;28.13;;;;;;;;;;751768;184;919589;-63
2022/04/28 05:53:42;;;;;;;42.30;24.83;;;;;;;;;;759419;184;919292;-63
2022/04/28 05:56:08;;;;;;;37.67;20.37;;;;;;;;;;763621;184;901123;-65
2022/04/28 05:58:34;;;;;;;35.07;25.17;;;;;;;;;;751033;184;1002607;-65
2022/04/28 06:01:00;;;;;;;32.77;23.00;;;;;;;;;;750010;184;918920;-63
2022/04/28 06:03:25;;;;;;;35.10;23.33;;;;;;;;;;756848;184;918720;-63
2022/04/28 06:05:52;;;;;;;41.50;23.58;;;;;;;;;;753289;187;943275;-66
2022/04/28 06:08:17;;;;;;;36.17;22.37;;;;;;;;;;754960;184;919677;-66
2022/04/28 06:10:43;;;;;;;26.87;19.63;;;;;;;;;;757271;182;920019;-63
2022/04/28 06:13:10;;;;;;;33.80;20.50;;;;;;;;;;757898;184;910572;-64
2022/04/28 06:15:35;;;;;;;33.53;18.53;;;;;;;;;;759814;183;917845;-64
2022/04/28 06:18:01;;;;;;;25.27;16.77;;;;;;;;;;759923;183;920426;-65
2022/04/28 06:20:27;;;;;;;26.00;19.65;;;;;;;;;;768644;183;919016;-65
2022/04/28 06:22:53;;;;;;;33.77;19.57;;;;;;;;;;756259;183;919888;-64
2022/04/28 06:25:18;;;;;;;26.37;18.63;;;;;;;;;;758580;184;926458;-65
2022/04/28 06:27:44;;;;;;;31.08;19.15;;;;;;;;;;758345;184;918017;-64
2022/04/28 06:30:10;;;;;;;25.93;16.53;;;;;;;;;;758642;183;918907;-64
2022/04/28 06:32:37;;;;;;;25.70;15.90;;;;;;;;;;749908;183;918001;-65
2022/04/28 06:35:03;;;;;;;28.43;21.10;;;;;;;;;;750978;184;918671;-65
2022/04/28 06:37:28;;;;;;;25.33;16.77;;;;;;;;;;747508;186;916496;-65
2022/04/28 06:39:54;;;;;;;22.73;13.87;;;;;;;;;;753895;184;920621;-65
2022/04/28 06:42:20;;;;;;;24.80;14.10;;;;;;;;;;750923;184;918945;-66
2022/04/28 06:44:46;;;;;;;22.15;15.13;;;;;;;;;;755790;184;921208;-65
2022/04/28 06:47:12;;;;;;;23.73;16.43;;;;;;;;;;748775;184;1019473;-65
2022/04/28 06:49:38;;;;;;;19.97;14.80;;;;;;;;;;747237;185;919896;-64
2022/04/28 06:52:04;;;;;;;24.30;13.63;;;;;;;;;;747382;184;918916;-64
2022/04/28 06:54:30;;;;;;;22.87;15.30;;;;;;;;;;750836;184;917337;-65
2022/04/28 06:56:55;;;;;;;21.47;15.83;;;;;;;;;;747513;184;937511;-65
2022/04/28 06:59:21;;;;;;;20.30;15.90;;;;;;;;;;748311;185;920264;-65
2022/04/28 07:01:47;;;;;;;18.83;13.97;;;;;;;;;;753960;185;917467;-65
2022/04/28 07:04:13;;;;;;;18.70;14.10;;;;;;;;;;759969;183;919991;-65
2022/04/28 07:06:39;;;;;;;21.20;13.43;;;;;;;;;;753741;183;919006;-65
2022/04/28 07:09:05;;;;;;;21.63;13.97;;;;;;;;;;758219;184;1017612;-65
2022/04/28 07:11:30;;;;;;;20.20;14.10;;;;;;;;;;755942;184;920192;-66
2022/04/28 07:13:56;;;;;;;22.00;13.83;;;;;;;;;;757176;183;939819;-65
2022/04/28 07:16:22;;;;;;;23.67;15.02;;;;;;;;;;762732;183;915891;-65
2022/04/28 07:18:48;;;;;;;20.33;13.60;;;;;;;;;;757582;184;920428;-65
2022/04/28 07:21:14;;;;;;;19.03;12.83;;;;;;;;;;753805;181;915506;-66
2022/04/28 07:23:40;;;;;;;19.50;13.80;;;;;;;;;;755388;183;915821;-66
2022/04/28 07:26:06;;;;;;;21.00;12.20;;;;;;;;;;762121;183;915617;-66
2022/04/28 07:28:32;;;;;;;18.23;13.77;;;;;;;;;;750885;183;915576;-65
2022/04/28 07:30:57;;;;;;;20.00;12.82;;;;;;;;;;756100;183;913482;-65
2022/04/28 07:33:23;;;;;;;21.63;14.60;;;;;;;;;;756680;183;916056;-66
2022/04/28 07:35:49;;;;;;;20.00;14.07;;;;;;;;;;749609;183;914105;-66
2022/04/28 07:38:15;;;;;;;21.63;14.63;;;;;;;;;;754815;183;919751;-66
2022/04/28 07:40:41;;;;;;;19.00;13.57;;;;;;;;;;759508;184;919151;-66
2022/04/28 07:43:07;;;;;;;20.20;12.53;;;;;;;;;;754641;184;919051;-66
2022/04/28 07:45:32;;;;;;;17.30;12.37;;;;;;;;;;754921;184;919434;-66
2022/04/28 07:47:59;;;;;;;19.45;12.13;;;;;;;;;;757165;184;920516;-66
2022/04/28 07:50:24;;;;;;;17.37;11.27;;;;;;;;;;751643;187;918198;-66
2022/04/28 07:52:50;;;;;;;16.30;12.60;;;;;;;;;;757482;183;918842;-67
2022/04/28 07:55:16;;;;;;;18.05;10.77;;;;;;;;;;752949;184;918815;-66
2022/04/28 07:57:42;;;;;;;16.47;12.07;;;;;;;;;;766144;183;918195;-66
2022/04/28 08:00:08;;;;;;;17.50;13.33;;;;;;;;;;758230;183;918615;-66
2022/04/28 08:02:36;;;;;;;16.10;13.13;;;;;;;;;;758242;183;919711;-66
2022/04/28 08:05:00;;;;;;;19.27;13.63;;;;;;;;;;757358;184;918604;-66
2022/04/28 08:07:26;;;;;;;15.03;10.97;;;;;;;;;;753332;183;919420;-66
2022/04/28 08:09:52;;;;;;;16.30;10.53;;;;;;;;;;753351;184;919151;-68
2022/04/28 08:12:18;;;;;;;19.53;11.73;;;;;;;;;;760205;184;919589;-66
2022/04/28 08:14:44;;;;;;;16.70;10.77;;;;;;;;;;755181;183;921143;-67
2022/04/28 08:17:09;;;;;;;13.47;10.43;;;;;;;;;;754625;184;918750;-66
2022/04/28 08:19:35;;;;;;;12.83;9.70;;;;;;;;;;755613;183;919299;-66
2022/04/28 08:22:01;;;;;;;13.90;9.97;;;;;;;;;;760752;184;920216;-68
2022/04/28 08:24:27;;;;;;;17.73;10.77;;;;;;;;;;756511;184;919233;-67
2022/04/28 08:26:54;;;;;;;13.90;11.53;;;;;;;;;;758678;183;919245;-67
2022/04/28 08:29:19;;;;;;;14.73;10.20;;;;;;;;;;752306;184;918713;-66
2022/04/28 08:31:45;;;;;;;17.90;11.00;;;;;;;;;;748997;184;919496;-67
2022/04/28 08:34:10;;;;;;;14.10;10.97;;;;;;;;;;753649;184;1031281;-67
2022/04/28 08:36:36;;;;;;;16.33;10.97;;;;;;;;;;763859;183;919244;-67
2022/04/28 08:39:02;;;;;;;15.07;9.90;;;;;;;;;;755887;184;918762;-67
2022/04/28 08:41:32;;;;;;;15.50;9.40;;;;;;;;;;756264;184;919460;-67
2022/04/28 08:43:57;;;;;;;13.60;9.57;;;;;;;;;;756748;184;919514;-67
2022/04/28 08:48:54;;;;;;;11.80;8.20;;;;;;;;;;758988;183;918971;-67
2022/04/28 08:51:20;;;;;;;14.70;8.43;;;;;;;;;;762868;183;919734;-67
2022/04/28 08:53:47;;;;;;;14.07;7.75;;;;;;;;;;761222;183;918466;-67
2022/04/28 08:56:13;;;;;;;13.43;9.10;;;;;;;;;;749678;188;917644;-67
2022/04/28 08:58:39;;;;;;;7.90;6.40;;;;;;;;;;758836;183;920867;-68
2022/04/28 09:01:04;;;;;;;11.60;7.28;;;;;;;;;;748807;184;920823;-67
2022/04/28 09:03:31;;;;;;;14.00;9.03;;;;;;;;;;763856;183;917255;-67
2022/04/28 09:05:56;;;;;;;10.60;8.03;;;;;;;;;;759844;184;918091;-68
2022/04/28 09:08:22;;;;;;;12.18;8.38;;;;;;;;;;757786;184;1017637;-67
2022/04/28 09:10:48;;;;;;;13.33;8.70;;;;;;;;;;763811;184;917855;-67
2022/04/28 09:15:46;;;;;;;18.40;9.03;;;;;;;;;;749661;185;917290;-67
2022/04/28 09:18:12;;;;;;;11.73;7.30;;;;;;;;;;751779;184;919996;-65
2022/04/28 09:20:37;;;;;;;11.33;7.23;;;;;;;;;;753216;185;918965;-65
2022/04/28 09:23:03;;;;;;;10.77;7.23;;;;;;;;;;747227;185;918816;-67
2022/04/28 09:25:31;;;;;;;16.67;6.47;;;;;;;;;;750191;184;918798;-67
2022/04/28 09:27:56;;;;;;;11.97;7.00;;;;;;;;;;754190;185;918412;-66
2022/04/28 09:30:23;;;;;;;12.93;6.10;;;;;;;;;;749845;185;919236;-67
2022/04/28 09:32:48;;;;;;;10.32;6.18;;;;;;;;;;748915;185;920324;-67
2022/04/28 09:35:15;;;;;;;9.73;5.87;;;;;;;;;;753988;185;918559;-67
2022/04/28 09:37:39;;;;;;;7.43;6.00;;;;;;;;;;748070;184;918768;-66
2022/04/28 09:42:40;;;;;;;6.40;4.50;;;;;;;;;;755628;183;919410;-67
2022/04/28 09:45:06;;;;;;;8.20;5.50;;;;;;;;;;761070;182;918735;-69
2022/04/28 09:47:32;;;;;;;8.63;5.90;;;;;;;;;;756986;183;919440;-67
2022/04/28 09:49:58;;;;;;;9.37;5.03;;;;;;;;;;756695;182;1021108;-67
2022/04/28 09:52:32;;;;;;;8.83;5.50;;;;;;;;;;756943;182;923546;-67
2022/04/28 09:54:58;;;;;;;14.13;5.70;;;;;;;;;;765216;183;919769;-68
2022/04/28 09:57:24;;;;;;;10.00;6.07;;;;;;;;;;758518;184;918584;-68
2022/04/28 09:59:50;;;;;;;8.73;5.10;;;;;;;;;;755413;184;921668;-68
2022/04/28 10:02:16;;;;;;;7.17;4.40;;;;;;;;;;761612;184;967392;-69
2022/04/28 10:04:42;;;;;;;13.20;5.83;;;;;;;;;;754572;184;919602;-68
2022/04/28 10:07:08;;;;;;;5.97;3.83;;;;;;;;;;758637;183;915711;-68
2022/04/28 10:09:33;;;;;;;7.10;4.00;;;;;;;;;;756660;183;916545;-68
2022/04/28 10:11:59;;;;;;;5.57;3.87;;;;;;;;;;760741;184;936704;-68
2022/04/28 10:14:25;;;;;;;8.83;4.43;;;;;;;;;;754536;184;919875;-68
2022/04/28 10:16:51;;;;;;;7.10;4.32;;;;;;;;;;752740;184;918287;-68
2022/04/28 10:19:26;;;;;;;9.60;4.47;;;;;;;;;;761724;184;919766;-67
2022/04/28 10:21:52;;;;;;;7.60;5.13;;;;;;;;;;767177;184;908972;-69
2022/04/28 10:34:26;;;;;;;14.40;5.87;;;;;;;;;;755467;184;919399;-68
2022/04/28 10:36:58;;;;;;;10.77;5.40;;;;;;;;;;759605;184;918886;-68
2022/04/28 10:39:29;;;;;;;6.03;4.83;;;;;;;;;;759233;184;628932;-69
2022/04/28 10:41:55;;;;;;;6.20;4.30;;;;;;;;;;757752;183;627135;-69
2022/04/28 10:44:21;;;;;;;8.50;5.67;;;;;;;;;;753271;183;667074;-68
2022/04/28 10:46:53;;;;;;;5.47;4.13;;;;;;;;;;761898;183;643814;-69
2022/04/28 10:49:24;;;;;;;6.60;4.33;;;;;;;;;;749641;184;919617;-68
2022/04/28 10:51:45;;;;;;;8.27;4.00;;;;;;;;;;757769;184;919688;-67
2022/04/28 10:54:10;;;;;;;6.83;5.00;;;;;;;;;;753365;184;918810;-69
2022/04/28 10:56:56;;;;;;;9.52;5.07;;;;;;;;;;752745;184;1019369;-69
2022/04/28 10:59:31;;;;;;;9.83;5.07;;;;;;;;;;759611;183;920045;-70
2022/04/28 11:01:55;;;;;;;7.50;4.70;;;;;;;;;;755145;184;918951;-70
2022/04/28 11:04:22;;;;;;;7.63;5.00;;;;;;;;;;763487;183;886800;-69
2022/04/28 11:06:49;;;;;;;7.53;4.93;;;;;;;;;;754161;183;918917;-70
2022/04/28 11:09:15;;;;;;;9.77;4.63;;;;;;;;;;758195;183;928675;-70
2022/04/28 11:11:41;;;;;;;5.37;3.43;;;;;;;;;;760265;184;914955;-69
2022/04/28 11:14:08;;;;;;;7.80;4.80;;;;;;;;;;755073;183;921540;-70
2022/04/28 11:16:33;;;;;;;10.25;5.12;;;;;;;;;;751541;183;921164;-69
2022/04/28 11:18:59;;;;;;;15.90;5.53;;;;;;;;;;751836;183;915704;-70
2022/04/28 11:21:25;;;;;;;7.60;5.20;;;;;;;;;;755366;185;919487;-70
2022/04/28 11:23:51;;;;;;;10.33;7.07;;;;;;;;;;759618;183;916088;-69
2022/04/28 11:26:16;;;;;;;10.10;5.90;;;;;;;;;;753162;184;920791;-70
2022/04/28 11:28:42;;;;;;;10.50;6.67;;;;;;;;;;761570;184;915986;-70
2022/04/28 11:31:08;;;;;;;11.33;6.33;;;;;;;;;;756881;183;915996;-69
2022/04/28 11:33:34;;;;;;;6.43;5.07;;;;;;;;;;755361;184;1023108;-70
2022/04/28 11:36:01;;;;;;;6.93;4.87;;;;;;;;;;760134;184;921143;-70
2022/04/28 11:38:26;;;;;;;10.03;5.67;;;;;;;;;;756281;184;912801;-72
2022/04/28 11:40:57;;;;;;;6.77;6.07;;;;;;;;;;756530;184;932615;-70
2022/04/28 11:43:22;;;;;;;9.87;5.63;;;;;;;;;;759823;183;919446;-71
2022/04/28 11:45:48;;;;;;;9.13;5.17;;;;;;;;;;758952;184;911384;-68
2022/04/28 11:48:14;;;;;;;8.53;5.10;;;;;;;;;;760159;183;919104;-68
2022/04/28 11:50:40;;;;;;;10.27;5.10;;;;;;;;;;752667;183;919399;-71
2022/04/28 11:53:06;;;;;;;9.73;4.47;;;;;;;;;;759141;184;920540;-68
2022/04/28 11:55:34;;;;;;;8.02;4.90;;;;;;;;;;758482;184;913613;-70
2022/04/28 11:57:58;;;;;;;8.20;5.17;;;;;;;;;;758653;184;918370;-71
2022/04/28 12:00:25;;;;;;;6.83;4.40;;;;;;;;;;755421;184;918114;-69
2022/04/28 12:02:52;;;;;;;9.90;4.80;;;;;;;;;;757061;183;919403;-70
2022/04/28 12:05:18;;;;;;;5.37;3.90;;;;;;;;;;751375;183;919238;-71
2022/04/28 12:07:43;;;;;;;7.10;4.70;;;;;;;;;;758596;182;918705;-69
2022/04/28 12:15:12;;;;;;;9.87;4.93;;;;;;;;;;759796;183;629441;-71
2022/04/28 12:20:11;;;;;;;9.87;4.13;;;;;;;;;;761091;182;899630;-70
2022/04/28 12:22:35;;;;;;;8.80;4.03;;;;;;;;;;755077;184;919042;-71
2022/04/28 12:25:02;;;;;;;6.17;4.20;;;;;;;;;;747736;184;919670;-71
2022/04/28 12:27:28;;;;;;;7.90;4.50;;;;;;;;;;754651;184;919475;-70
2022/04/28 12:29:55;;;;;;;5.90;4.17;;;;;;;;;;760115;184;817331;-70
2022/04/28 12:32:20;;;;;;;5.90;3.60;;;;;;;;;;753742;184;920062;-68
2022/04/28 12:34:46;;;;;;;6.30;3.90;;;;;;;;;;754452;184;919002;-70
2022/04/28 12:37:12;;;;;;;5.63;3.73;;;;;;;;;;759394;184;917019;-70
2022/04/28 12:39:54;;;;;;;6.47;3.67;;;;;;;;;;754887;184;919196;-70
2022/04/28 12:42:19;;;;;;;4.87;3.40;;;;;;;;;;750243;183;919022;-71
2022/04/28 12:44:46;;;;;;;5.30;3.77;;;;;;;;;;752253;183;919288;-70
2022/04/28 12:47:12;;;;;;;6.37;4.30;;;;;;;;;;757387;183;918421;-70
2022/04/28 12:49:43;;;;;;;6.20;3.73;;;;;;;;;;752661;184;919083;-70
2022/04/28 12:52:09;;;;;;;6.30;3.63;;;;;;;;;;750739;184;918777;-69
2022/04/28 12:54:36;;;;;;;6.85;3.95;;;;;;;;;;758448;183;1035372;-70
2022/04/28 12:57:04;;;;;;;5.73;3.83;;;;;;;;;;760780;185;918992;-69
2022/04/28 12:59:31;;;;;;;9.03;3.90;;;;;;;;;;749372;185;918937;-69
2022/04/28 13:01:58;;;;;;;6.17;4.10;;;;;;;;;;748047;184;919230;-70
2022/04/28 13:04:23;;;;;;;4.50;3.30;;;;;;;;;;751544;184;919124;-69
2022/04/28 13:06:50;;;;;;;7.07;4.43;;;;;;;;;;760384;184;816604;-71
2022/04/28 13:09:15;;;;;;;7.23;3.83;;;;;;;;;;751035;183;919228;-70
2022/04/28 13:11:41;;;;;;;9.63;4.47;;;;;;;;;;749332;184;919226;-71
2022/04/28 13:14:08;;;;;;;5.70;5.10;;;;;;;;;;753352;184;918786;-69
2022/04/28 13:16:35;;;;;;;6.10;3.77;;;;;;;;;;726202;192;815346;-71
2022/04/28 13:19:01;;;;;;;6.20;3.27;;;;;;;;;;745664;186;917593;-71
2022/04/28 13:21:28;;;;;;;8.50;5.00;;;;;;;;;;750243;186;920738;-69
2022/04/28 13:23:54;;;;;;;6.20;3.90;;;;;;;;;;755396;183;931858;-70
2022/04/28 13:26:20;;;;;;;6.07;4.20;;;;;;;;;;757439;183;919439;-71
2022/04/28 13:28:45;;;;;;;5.80;3.57;;;;;;;;;;757219;182;919372;-70
2022/04/28 13:31:12;;;;;;;5.15;3.62;;;;;;;;;;759837;183;918616;-70
2022/04/28 13:33:38;;;;;;;6.07;3.70;;;;;;;;;;754929;182;919568;-71
2022/04/28 13:36:03;;;;;;;8.73;4.37;;;;;;;;;;749408;184;630697;-71
2022/04/28 13:38:29;;;;;;;6.30;3.60;;;;;;;;;;756122;184;918863;-71
2022/04/28 13:40:55;;;;;;;7.13;4.20;;;;;;;;;;740681;185;918989;-70
2022/04/28 13:43:21;;;;;;;8.90;4.68;;;;;;;;;;748236;185;919691;-70
2022/04/28 13:45:46;;;;;;;4.70;3.20;;;;;;;;;;755269;185;919330;-70
2022/04/28 13:48:12;;;;;;;6.17;3.87;;;;;;;;;;756810;184;918624;-71
2022/04/28 13:50:38;;;;;;;5.67;3.87;;;;;;;;;;758420;184;918904;-72
2022/04/28 13:53:05;;;;;;;6.25;3.90;;;;;;;;;;764221;183;919568;-69
2022/04/28 13:55:30;;;;;;;7.27;4.33;;;;;;;;;;760751;183;918579;-70
2022/04/28 13:57:56;;;;;;;5.07;3.40;;;;;;;;;;757751;183;919444;-70
2022/04/28 14:00:22;;;;;;;9.60;3.60;;;;;;;;;;755154;185;918795;-71
2022/04/28 14:02:48;;;;;;;7.77;3.73;;;;;;;;;;761225;184;919456;-72
2022/04/28 14:05:14;;;;;;;5.97;3.63;;;;;;;;;;751340;185;1738101;-72
2022/04/28 14:07:40;;;;;;;14.13;4.50;;;;;;;;;;754608;183;922264;-70
2022/04/28 14:10:06;;;;;;;6.30;3.20;;;;;;;;;;761949;184;919170;-70
2022/04/28 14:12:32;;;;;;;4.03;3.23;;;;;;;;;;757861;184;919212;-72
2022/04/28 14:14:58;;;;;;;6.20;3.80;;;;;;;;;;756919;183;918884;-71
2022/04/28 14:17:24;;;;;;;11.40;3.90;;;;;;;;;;763288;184;918953;-71
2022/04/28 14:19:49;;;;;;;7.50;3.67;;;;;;;;;;752916;184;918197;-70
2022/04/28 14:22:17;;;;;;;7.37;4.47;;;;;;;;;;748831;185;919336;-71
2022/04/28 14:24:41;;;;;;;5.37;3.57;;;;;;;;;;753529;184;918132;-71
2022/04/28 14:27:07;;;;;;;4.53;2.73;;;;;;;;;;761678;183;919163;-69
2022/04/28 14:29:33;;;;;;;8.93;3.87;;;;;;;;;;754168;184;931930;-70
2022/04/28 14:32:01;;;;;;;6.00;3.60;;;;;;;;;;757284;183;918765;-70
2022/04/28 14:34:25;;;;;;;7.33;3.10;;;;;;;;;;762003;182;920664;-69
2022/04/28 14:36:50;;;;;;;5.93;3.87;;;;;;;;;;751029;183;924681;-70
2022/04/28 14:39:16;;;;;;;7.90;3.60;;;;;;;;;;760370;183;919648;-70
2022/04/28 14:41:42;;;;;;;7.07;4.93;;;;;;;;;;768377;181;918843;-69
2022/04/28 14:44:08;;;;;;;5.73;3.50;;;;;;;;;;763197;184;623142;-70
2022/04/28 14:46:34;;;;;;;8.90;4.50;;;;;;;;;;762303;183;700375;-70
2022/04/28 14:54:03;;;;;;;4.60;3.80;;;;;;;;;;754539;184;921414;-70